createdAt,value
2022-10-05T00:00:51.370Z,11.98
2022-10-05T00:03:18.362Z,11.87
2022-10-05T00:05:46.330Z,11.66
2022-10-05T00:08:18.962Z,11.64
2022-10-05T00:10:46.776Z,11.53
2022-10-05T00:13:25.285Z,11.39
2022-10-05T00:16:16.343Z,11.32
2022-10-05T00:18:50.178Z,11.25
2022-10-05T00:21:23.405Z,11.24
2022-10-05T00:23:51.275Z,11.17
2022-10-05T00:26:24.821Z,11.16
2022-10-05T00:28:53.632Z,11.06
2022-10-05T00:31:26.678Z,11.01
2022-10-05T00:33:55.206Z,10.97
2022-10-05T00:36:22.207Z,10.91
2022-10-05T00:38:49.682Z,10.87
2022-10-05T00:41:45.695Z,10.79
2022-10-05T00:44:35.922Z,10.89
2022-10-05T00:47:18.578Z,10.79
2022-10-05T00:49:51.334Z,10.69
2022-10-05T00:52:33.445Z,10.66
2022-10-05T00:55:05.680Z,10.60
2022-10-05T00:57:50.978Z,10.63
2022-10-05T01:00:26.163Z,10.57
2022-10-05T01:03:28.829Z,10.55
2022-10-05T01:06:32.748Z,10.43
2022-10-05T01:09:11.267Z,10.29
2022-10-05T01:11:40.850Z,10.27
2022-10-05T01:14:07.711Z,10.28
2022-10-05T01:16:51.084Z,10.22
2022-10-05T01:19:21.091Z,10.22
2022-10-05T01:21:55.903Z,10.15
2022-10-05T01:24:41.164Z,10.11
2022-10-05T01:27:18.536Z,10.10
2022-10-05T01:30:02.505Z,10.16
2022-10-05T01:32:39.584Z,10.14
2022-10-05T01:35:22.122Z,9.95
2022-10-05T01:38:01.505Z,9.83
2022-10-05T01:40:44.745Z,9.80
2022-10-05T01:43:34.426Z,9.83
2022-10-05T01:46:07.562Z,9.89
2022-10-05T01:48:53.276Z,9.82
2022-10-05T01:51:37.552Z,9.72
2022-10-05T01:54:21.158Z,9.67
2022-10-05T01:57:13.063Z,9.67
2022-10-05T02:00:01.546Z,9.64
2022-10-05T02:02:31.846Z,9.63
2022-10-05T02:05:14.145Z,9.62
2022-10-05T02:07:54.861Z,9.60
2022-10-05T02:10:33.059Z,9.60
2022-10-05T02:13:35.395Z,9.56
2022-10-05T02:16:18.051Z,9.52
2022-10-05T02:18:56.939Z,9.56
2022-10-05T02:21:25.665Z,9.62
2022-10-05T02:23:57.745Z,9.59
2022-10-05T02:26:26.665Z,9.60
2022-10-05T02:29:04.339Z,9.59
2022-10-05T02:31:40.635Z,9.55
2022-10-05T02:34:23.760Z,9.58
2022-10-05T02:36:59.030Z,9.52
2022-10-05T02:39:35.867Z,9.48
2022-10-05T02:42:30.395Z,9.51
2022-10-05T02:45:03.704Z,9.65
2022-10-05T02:47:55.474Z,9.67
2022-10-05T02:50:45.457Z,9.52
2022-10-05T02:53:25.596Z,9.48
2022-10-05T02:56:09.261Z,9.48
2022-10-05T02:58:46.430Z,9.50
2022-10-05T03:01:35.952Z,9.51
2022-10-05T03:04:36.909Z,9.41
2022-10-05T03:07:16.424Z,9.30
2022-10-05T03:10:01.289Z,9.31
2022-10-05T03:12:37.753Z,9.32
2022-10-05T03:16:00.018Z,9.25
2022-10-05T03:18:39.353Z,9.28
2022-10-05T03:21:45.838Z,9.29
2022-10-05T03:24:15.991Z,9.25
2022-10-05T03:27:08.935Z,9.17
2022-10-05T03:29:57.717Z,9.22
2022-10-05T03:32:35.105Z,9.20
2022-10-05T03:35:23.269Z,9.13
2022-10-05T03:37:56.239Z,9.09
2022-10-05T03:40:48.988Z,9.08
2022-10-05T03:43:52.610Z,9.15
2022-10-05T03:46:53.165Z,9.20
2022-10-05T03:49:44.749Z,9.23
2022-10-05T03:52:38.760Z,9.21
2022-10-05T03:55:26.473Z,9.22
2022-10-05T03:57:58.746Z,9.22
2022-10-05T04:00:30.843Z,9.20
2022-10-05T04:03:10.296Z,9.13
2022-10-05T04:05:50.644Z,9.16
2022-10-05T04:08:36.458Z,9.12
2022-10-05T04:11:13.765Z,9.09
2022-10-05T04:13:54.470Z,9.06
2022-10-05T04:16:55.895Z,9.12
2022-10-05T04:19:52.127Z,9.12
2022-10-05T04:22:30.213Z,9.09
2022-10-05T04:25:23.959Z,9.05
2022-10-05T04:28:01.433Z,9.03
2022-10-05T04:30:30.942Z,9.03
2022-10-05T04:32:59.660Z,9.10
2022-10-05T04:35:50.457Z,9.14
2022-10-05T04:38:28.155Z,9.21
2022-10-05T04:41:14.260Z,9.18
2022-10-05T04:44:13.502Z,9.17
2022-10-05T04:47:05.388Z,9.18
2022-10-05T04:49:58.340Z,9.20
2022-10-05T04:52:40.238Z,9.21
2022-10-05T04:55:31.033Z,9.19
2022-10-05T04:58:15.026Z,9.14
2022-10-05T05:01:08.356Z,9.09
2022-10-05T05:03:57.573Z,9.21
2022-10-05T05:07:33.827Z,9.38
2022-10-05T05:10:18.017Z,9.38
2022-10-05T05:13:03.657Z,9.32
2022-10-05T05:16:05.647Z,9.26
2022-10-05T05:18:45.232Z,9.32
2022-10-05T05:21:33.309Z,9.38
2022-10-05T05:24:27.824Z,9.60
2022-10-05T05:27:01.249Z,9.81
2022-10-05T05:30:05.718Z,9.71
2022-10-05T05:32:59.461Z,9.77
2022-10-05T05:35:46.124Z,9.78
2022-10-05T05:38:21.637Z,9.86
2022-10-05T05:41:25.103Z,9.85
2022-10-05T05:44:08.610Z,9.93
2022-10-05T05:47:03.042Z,10.01
2022-10-05T05:49:48.513Z,10.08
2022-10-05T05:52:26.194Z,10.10
2022-10-05T05:55:00.153Z,10.16
2022-10-05T05:57:33.734Z,10.30
2022-10-05T06:00:16.587Z,10.34
2022-10-05T06:02:55.735Z,10.34
2022-10-05T06:05:34.503Z,10.28
2022-10-05T06:08:16.065Z,10.60
2022-10-05T06:10:57.700Z,10.52
2022-10-05T06:13:33.099Z,10.49
2022-10-05T06:16:20.002Z,10.65
2022-10-05T06:19:04.087Z,10.70
2022-10-05T06:22:22.674Z,10.90
2022-10-05T06:25:11.985Z,11.05
2022-10-05T06:28:11.945Z,11.14
2022-10-05T06:31:20.373Z,11.33
2022-10-05T06:33:54.859Z,11.31
2022-10-05T06:36:40.915Z,11.19
2022-10-05T06:39:17.427Z,11.33
2022-10-05T06:41:47.713Z,11.45
2022-10-05T06:44:22.274Z,11.59
2022-10-05T06:47:34.810Z,11.68
2022-10-05T06:50:29.588Z,11.74
2022-10-05T06:53:40.963Z,11.76
2022-10-05T06:56:16.561Z,11.89
2022-10-05T06:59:04.931Z,11.85
2022-10-05T07:01:37.914Z,11.83
2022-10-05T07:04:24.372Z,11.88
2022-10-05T07:07:10.255Z,11.92
2022-10-05T07:10:02.225Z,11.99
2022-10-05T07:12:54.433Z,12.14
2022-10-05T07:15:43.863Z,12.33
2022-10-05T07:18:12.783Z,12.48
2022-10-05T07:21:02.801Z,12.45
2022-10-05T07:23:36.059Z,12.36
2022-10-05T07:26:06.272Z,12.65
2022-10-05T07:28:49.308Z,12.69
2022-10-05T07:31:48.809Z,12.67
2022-10-05T07:34:24.892Z,12.78
2022-10-05T07:37:27.144Z,12.88
2022-10-05T07:40:00.660Z,12.83
2022-10-05T07:42:52.091Z,12.66
2022-10-05T07:45:43.754Z,12.83
2022-10-05T07:48:21.651Z,12.95
2022-10-05T07:51:06.727Z,13.01
2022-10-05T07:53:41.236Z,13.16
2022-10-05T07:56:22.418Z,13.22
2022-10-05T07:59:03.123Z,13.32
2022-10-05T08:01:35.131Z,13.48
2022-10-05T08:04:11.441Z,13.52
2022-10-05T08:06:50.268Z,13.74
2022-10-05T08:09:53.783Z,13.82
2022-10-05T08:12:53.742Z,13.96
2022-10-05T08:15:25.926Z,14.12
2022-10-05T08:18:00.646Z,14.11
2022-10-05T08:20:42.943Z,14.17
2022-10-05T08:23:09.931Z,14.25
2022-10-05T08:26:09.460Z,14.37
2022-10-05T08:28:54.336Z,14.47
2022-10-05T08:31:30.090Z,14.76
2022-10-05T08:34:01.222Z,14.87
2022-10-05T08:37:00.655Z,15.14
2022-10-05T08:39:34.766Z,15.19
2022-10-05T08:42:16.882Z,15.15
2022-10-05T08:45:06.082Z,15.01
2022-10-05T08:47:57.649Z,15.19
2022-10-05T08:50:33.785Z,15.37
2022-10-05T08:53:03.387Z,15.55
2022-10-05T08:55:47.374Z,15.46
2022-10-05T08:58:54.300Z,15.55
2022-10-05T09:01:35.871Z,15.54
2022-10-05T09:04:21.276Z,15.60
2022-10-05T09:07:23.640Z,15.84
2022-10-05T09:10:30.040Z,15.77
2022-10-05T09:13:09.457Z,15.96
2022-10-05T09:15:58.393Z,16.01
2022-10-05T09:19:01.176Z,16.17
2022-10-05T09:21:52.666Z,16.21
2022-10-05T09:24:28.154Z,16.46
2022-10-05T09:27:17.607Z,16.40
2022-10-05T09:30:19.642Z,16.57
2022-10-05T09:32:57.994Z,16.51
2022-10-05T09:35:49.625Z,16.66
2022-10-05T09:38:31.790Z,16.63
2022-10-05T09:41:24.937Z,16.64
2022-10-05T09:44:03.855Z,16.48
2022-10-05T09:46:37.030Z,16.61
2022-10-05T09:49:19.285Z,16.88
2022-10-05T09:52:07.764Z,16.98
2022-10-05T09:54:47.262Z,17.11
2022-10-05T09:57:33.618Z,17.01
2022-10-05T10:00:24.377Z,16.95
2022-10-05T10:03:05.948Z,17.15
2022-10-05T10:05:47.608Z,17.26
2022-10-05T10:08:27.707Z,17.24
2022-10-05T10:11:25.378Z,17.26
2022-10-05T10:14:11.648Z,17.41
2022-10-05T10:16:56.835Z,17.54
2022-10-05T10:19:48.726Z,17.67
2022-10-05T10:22:18.902Z,17.77
2022-10-05T10:25:03.133Z,17.69
2022-10-05T10:27:42.153Z,17.76
2022-10-05T10:30:39.929Z,17.88
2022-10-05T10:33:25.732Z,17.99
2022-10-05T10:36:07.007Z,18.03
2022-10-05T10:39:20.827Z,18.04
2022-10-05T10:42:12.270Z,18.27
2022-10-05T10:44:54.971Z,18.42
2022-10-05T10:47:41.179Z,18.33
2022-10-05T10:50:08.383Z,18.41
2022-10-05T10:53:12.618Z,18.37
2022-10-05T10:56:16.762Z,18.73
2022-10-05T10:59:13.082Z,18.93
2022-10-05T11:02:04.632Z,18.60
2022-10-05T11:04:58.218Z,18.50
2022-10-05T11:08:03.351Z,18.53
2022-10-05T11:10:51.583Z,18.81
2022-10-05T11:13:25.003Z,18.97
2022-10-05T11:16:19.450Z,19.12
2022-10-05T11:19:21.690Z,19.11
2022-10-05T11:21:59.190Z,19.40
2022-10-05T11:24:54.830Z,19.27
2022-10-05T11:27:50.185Z,19.32
2022-10-05T11:30:51.318Z,19.47
2022-10-05T11:33:43.422Z,19.47
2022-10-05T11:36:22.876Z,19.47
2022-10-05T11:39:26.947Z,19.64
2022-10-05T11:42:23.535Z,19.80
2022-10-05T11:45:24.421Z,19.84
2022-10-05T11:48:33.740Z,19.87
2022-10-05T11:51:35.172Z,20.11
2022-10-05T11:54:08.148Z,20.16
2022-10-05T11:56:44.797Z,20.22
2022-10-05T11:59:30.736Z,20.26
2022-10-05T12:02:25.731Z,20.31
2022-10-05T12:05:46.923Z,20.33
2022-10-05T12:08:55.911Z,20.41
2022-10-05T12:11:22.829Z,20.49
2022-10-05T12:14:04.672Z,20.46
2022-10-05T12:16:53.788Z,20.70
2022-10-05T12:19:30.047Z,20.76
2022-10-05T12:22:04.666Z,20.57
2022-10-05T12:24:37.650Z,20.75
2022-10-05T12:27:27.719Z,21.05
2022-10-05T12:30:25.245Z,21.09
2022-10-05T12:33:02.233Z,21.12
2022-10-05T12:35:49.314Z,21.11
2022-10-05T12:38:41.772Z,21.16
2022-10-05T12:41:19.705Z,21.15
2022-10-05T12:44:37.822Z,21.19
2022-10-05T12:47:24.726Z,21.05
2022-10-05T12:50:03.565Z,21.11
2022-10-05T12:52:48.600Z,21.31
2022-10-05T12:55:28.471Z,21.45
2022-10-05T12:58:16.473Z,21.72
2022-10-05T13:01:21.740Z,21.89
2022-10-05T13:04:19.495Z,22.06
2022-10-05T13:06:52.599Z,22.05
2022-10-05T13:09:48.936Z,21.90
2022-10-05T13:12:48.098Z,21.95
2022-10-05T13:15:19.661Z,21.88
2022-10-05T13:18:00.222Z,21.77
2022-10-05T13:20:38.017Z,21.86
2022-10-05T13:23:14.064Z,22.14
2022-10-05T13:25:51.909Z,22.30
2022-10-05T13:28:30.774Z,22.50
2022-10-05T13:31:18.743Z,22.26
2022-10-05T13:33:59.905Z,22.39
2022-10-05T13:36:48.001Z,22.56
2022-10-05T13:39:14.999Z,22.70
2022-10-05T13:41:52.014Z,22.59
2022-10-05T13:44:35.379Z,22.59
2022-10-05T13:47:13.588Z,22.78
2022-10-05T13:50:19.311Z,22.70
2022-10-05T13:53:14.057Z,22.68
2022-10-05T13:55:54.601Z,21.81
2022-10-05T13:58:37.027Z,21.85
2022-10-05T14:01:14.783Z,21.84
2022-10-05T14:04:24.803Z,21.87
2022-10-05T14:06:54.822Z,22.07
2022-10-05T14:09:35.101Z,22.18
2022-10-05T14:12:04.778Z,22.14
2022-10-05T14:14:34.071Z,22.16
2022-10-05T14:17:05.890Z,22.24
2022-10-05T14:19:42.208Z,22.23
2022-10-05T14:22:24.390Z,22.05
2022-10-05T14:24:56.122Z,21.92
2022-10-05T14:27:28.889Z,21.67
2022-10-05T14:29:58.126Z,21.82
2022-10-05T14:32:27.732Z,21.88
2022-10-05T14:35:07.530Z,22.17
2022-10-05T14:37:56.279Z,22.15
2022-10-05T14:40:36.475Z,22.15
2022-10-05T14:43:15.513Z,22.00
2022-10-05T14:46:05.591Z,22.04
2022-10-05T14:48:42.984Z,21.99
2022-10-05T14:51:13.069Z,21.80
2022-10-05T14:53:43.685Z,21.84
2022-10-05T14:56:23.283Z,21.72
2022-10-05T14:59:04.263Z,21.79
2022-10-05T15:01:36.023Z,21.60
2022-10-05T15:04:26.927Z,21.53
2022-10-05T15:07:18.619Z,21.53
2022-10-05T15:09:54.390Z,21.47
2022-10-05T15:12:49.395Z,21.48
2022-10-05T15:15:34.040Z,21.24
2022-10-05T15:18:05.986Z,21.25
2022-10-05T15:20:57.559Z,21.17
2022-10-05T15:23:38.469Z,21.17
2022-10-05T15:26:30.243Z,21.23
2022-10-05T15:29:07.176Z,21.15
2022-10-05T15:31:46.779Z,21.05
2022-10-05T15:34:18.730Z,21.03
2022-10-05T15:36:54.613Z,20.95
2022-10-05T15:39:43.574Z,20.79
2022-10-05T15:42:14.763Z,20.77
2022-10-05T15:45:11.049Z,20.73
2022-10-05T15:48:18.046Z,20.65
2022-10-05T15:50:57.097Z,20.53
2022-10-05T15:53:52.619Z,20.43
2022-10-05T15:56:38.738Z,20.31
2022-10-05T15:59:20.047Z,20.13
2022-10-05T16:01:57.441Z,19.98
2022-10-05T16:04:39.869Z,19.92
2022-10-05T16:07:36.251Z,19.80
2022-10-05T16:10:21.594Z,19.60
2022-10-05T16:13:09.742Z,19.46
2022-10-05T16:15:42.937Z,19.43
2022-10-05T16:18:32.432Z,19.32
2022-10-05T16:21:05.364Z,19.14
2022-10-05T16:23:47.733Z,19.09
2022-10-05T16:26:48.972Z,19.08
2022-10-05T16:29:37.227Z,19.07
2022-10-05T16:32:16.112Z,19.00
2022-10-05T16:34:50.716Z,19.02
2022-10-05T16:37:59.673Z,19.18
2022-10-05T16:40:51.875Z,19.19
2022-10-05T16:43:21.836Z,19.14
2022-10-05T16:46:16.057Z,19.13
2022-10-05T16:48:57.546Z,19.03
2022-10-05T16:51:40.052Z,18.88
2022-10-05T16:54:25.320Z,18.78
2022-10-05T16:56:59.588Z,18.75
2022-10-05T16:59:32.506Z,18.73
2022-10-05T17:02:15.970Z,18.76
2022-10-05T17:05:10.309Z,18.71
2022-10-05T17:07:41.152Z,18.61
2022-10-05T17:10:38.734Z,18.56
2022-10-05T17:13:36.475Z,18.53
2022-10-05T17:16:25.346Z,18.41
2022-10-05T17:19:08.743Z,18.33
2022-10-05T17:21:46.216Z,18.21
2022-10-05T17:24:32.910Z,18.06
2022-10-05T17:27:23.169Z,17.95
2022-10-05T17:29:55.651Z,17.87
2022-10-05T17:32:22.592Z,17.78
2022-10-05T17:35:01.714Z,17.79
2022-10-05T17:37:35.621Z,17.73
2022-10-05T17:40:38.394Z,17.69
2022-10-05T17:43:17.301Z,17.58
2022-10-05T17:45:44.309Z,17.43
2022-10-05T17:48:12.982Z,17.46
2022-10-05T17:51:00.688Z,17.50
2022-10-05T17:54:06.878Z,17.48
2022-10-05T17:56:57.200Z,17.38
2022-10-05T17:59:46.480Z,17.24
2022-10-05T18:02:19.714Z,17.25
2022-10-05T18:05:12.857Z,17.34
2022-10-05T18:07:41.078Z,17.32
2022-10-05T18:10:13.443Z,17.29
2022-10-05T18:12:42.058Z,17.28
2022-10-05T18:15:08.951Z,17.32
2022-10-05T18:17:58.473Z,17.36
2022-10-05T18:20:28.820Z,17.31
2022-10-05T18:23:09.544Z,17.28
2022-10-05T18:26:18.137Z,17.20
2022-10-05T18:28:53.965Z,17.01
2022-10-05T18:31:39.013Z,16.90
2022-10-05T18:34:34.507Z,16.99
2022-10-05T18:37:04.074Z,17.06
2022-10-05T18:39:52.320Z,16.99
2022-10-05T18:42:38.136Z,16.99
2022-10-05T18:45:21.578Z,16.93
2022-10-05T18:48:04.113Z,16.97
2022-10-05T18:50:38.549Z,16.96
2022-10-05T18:53:11.670Z,16.96
2022-10-05T18:55:45.614Z,16.91
2022-10-05T18:58:26.133Z,16.83
2022-10-05T19:01:28.614Z,16.81
2022-10-05T19:04:09.906Z,16.77
2022-10-05T19:06:45.795Z,16.71
2022-10-05T19:09:24.181Z,16.64
2022-10-05T19:12:29.676Z,16.63
2022-10-05T19:15:22.591Z,16.68
2022-10-05T19:18:14.022Z,16.79
2022-10-05T19:20:47.702Z,16.71
2022-10-05T19:23:28.641Z,16.73
2022-10-05T19:26:07.627Z,16.72
2022-10-05T19:28:39.488Z,16.65
2022-10-05T19:31:12.234Z,16.65
2022-10-05T19:34:16.734Z,16.61
2022-10-05T19:37:08.696Z,16.61
2022-10-05T19:39:44.285Z,16.54
2022-10-05T19:42:44.735Z,16.50
2022-10-05T19:45:23.554Z,16.48
2022-10-05T19:48:05.583Z,16.48
2022-10-05T19:50:34.645Z,16.48
2022-10-05T19:53:08.325Z,16.52
2022-10-05T19:55:39.824Z,16.54
2022-10-05T19:58:23.453Z,16.54
2022-10-05T20:00:57.858Z,16.41
2022-10-05T20:03:32.921Z,16.39
2022-10-05T20:06:07.275Z,16.24
2022-10-05T20:08:48.534Z,16.19
2022-10-05T20:11:16.973Z,16.23
2022-10-05T20:13:45.488Z,16.13
2022-10-05T20:16:34.216Z,16.03
2022-10-05T20:19:23.764Z,16.07
2022-10-05T20:21:58.942Z,16.16
2022-10-05T20:24:29.926Z,16.26
2022-10-05T20:27:08.699Z,16.30
2022-10-05T20:29:43.495Z,16.29
2022-10-05T20:32:13.570Z,16.28
2022-10-05T20:34:42.429Z,16.25
2022-10-05T20:37:11.623Z,16.06
2022-10-05T20:39:40.094Z,16.11
2022-10-05T20:42:10.318Z,16.22
2022-10-05T20:44:38.181Z,16.13
2022-10-05T20:47:09.690Z,16.05
2022-10-05T20:49:38.670Z,15.83
2022-10-05T20:52:10.094Z,15.89
2022-10-05T20:54:38.924Z,15.82
2022-10-05T20:57:06.668Z,15.77
2022-10-05T20:59:35.228Z,15.75
2022-10-05T21:02:03.950Z,15.69
2022-10-05T21:04:42.874Z,15.67
2022-10-05T21:07:10.274Z,15.64
2022-10-05T21:09:38.622Z,15.54
2022-10-05T21:12:05.739Z,15.56
2022-10-05T21:14:34.569Z,15.43
2022-10-05T21:17:02.493Z,15.28
2022-10-05T21:19:30.099Z,15.38
2022-10-05T21:22:02.657Z,15.35
2022-10-05T21:24:29.712Z,15.45
2022-10-05T21:26:57.694Z,15.49
2022-10-05T21:29:24.820Z,15.45
2022-10-05T21:31:52.204Z,15.37
2022-10-05T21:34:19.315Z,15.37
2022-10-05T21:36:46.415Z,15.28
2022-10-05T21:39:16.181Z,15.16
2022-10-05T21:41:49.502Z,15.20
2022-10-05T21:44:17.001Z,15.17
2022-10-05T21:46:44.116Z,15.04
2022-10-05T21:49:15.042Z,14.99
2022-10-05T21:51:45.023Z,14.93
2022-10-05T21:54:15.570Z,14.89
2022-10-05T21:56:46.031Z,14.79
2022-10-05T21:59:16.889Z,14.78
2022-10-05T22:01:43.899Z,14.86
2022-10-05T22:04:10.863Z,14.81
2022-10-05T22:06:38.047Z,14.81
2022-10-05T22:09:06.192Z,14.82
2022-10-05T22:11:33.676Z,14.75
2022-10-05T22:14:03.690Z,14.68
2022-10-05T22:16:34.905Z,14.66
2022-10-05T22:19:05.269Z,14.61
2022-10-05T22:21:34.334Z,14.63
2022-10-05T22:24:02.890Z,14.60
2022-10-05T22:26:30.317Z,14.52
2022-10-05T22:28:57.435Z,14.51
2022-10-05T22:31:24.521Z,14.41
2022-10-05T22:33:51.688Z,14.39
2022-10-05T22:36:19.177Z,14.38
2022-10-05T22:38:47.723Z,14.31
2022-10-05T22:41:16.598Z,14.32
2022-10-05T22:43:43.828Z,14.25
2022-10-05T22:46:12.572Z,14.26
2022-10-05T22:48:40.455Z,14.31
2022-10-05T22:51:07.927Z,14.22
2022-10-05T22:53:35.528Z,14.36
2022-10-05T22:56:10.770Z,14.39
2022-10-05T22:58:38.465Z,14.35
2022-10-05T23:01:08.030Z,14.28
2022-10-05T23:03:35.560Z,14.20
2022-10-05T23:06:11.222Z,14.10
2022-10-05T23:08:39.717Z,13.94
2022-10-05T23:11:09.123Z,13.85
2022-10-05T23:13:36.489Z,13.82
2022-10-05T23:16:12.582Z,13.83
2022-10-05T23:18:40.393Z,13.72
2022-10-05T23:21:08.698Z,13.65
2022-10-05T23:23:37.593Z,13.51
2022-10-05T23:26:05.758Z,13.47
2022-10-05T23:28:34.441Z,13.40
2022-10-05T23:31:03.927Z,13.34
2022-10-05T23:33:31.310Z,13.35
2022-10-05T23:36:07.190Z,13.35
2022-10-05T23:38:35.261Z,13.32
2022-10-05T23:41:09.122Z,13.58
2022-10-05T23:43:36.963Z,13.72
2022-10-05T23:46:05.382Z,13.58
2022-10-05T23:48:33.265Z,13.59
2022-10-05T23:51:00.739Z,13.54
2022-10-05T23:53:27.765Z,13.53
2022-10-05T23:55:55.651Z,13.57
2022-10-05T23:58:23.357Z,13.55
